Time;durP1;ratioP1;P1;durP2;ratioP2;P2;SDS_P1;SDS_P2;PMS_P1;PMS_P2;Temp;Humidity;BMP_temperature;BMP_pressure;BME280_temperature;BME280_humidity;BME280_pressure;Samples;Min_cycle;Max_cycle;Signal;HPM_P1;HPM_P2
2024/01/22 00:01:00;;;;;;;15.53;9.77;;;;;;;;;;5092089;28;20243;-32
2024/01/22 00:03:30;;;;;;;14.70;9.17;;;;;;;;;;5090994;28;20197;-32
2024/01/22 00:06:04;;;;;;;13.77;8.27;;;;;;;;;;5087117;28;20217;-36
2024/01/22 00:08:33;;;;;;;13.60;8.67;;;;;;;;;;5088850;28;20259;-34
2024/01/22 00:11:02;;;;;;;12.90;8.73;;;;;;;;;;5084517;28;20232;-32
2024/01/22 00:13:34;;;;;;;14.00;9.47;;;;;;;;;;5090377;28;20208;-37
2024/01/22 00:16:04;;;;;;;14.63;9.97;;;;;;;;;;5091828;28;20197;-33
2024/01/22 00:18:35;;;;;;;10.40;7.43;;;;;;;;;;5081757;28;20300;-32
2024/01/22 00:21:20;;;;;;;13.07;8.20;;;;;;;;;;5083688;28;20232;-34
2024/01/22 00:23:57;;;;;;;12.27;8.67;;;;;;;;;;5085304;28;20540;-32
2024/01/22 00:26:34;;;;;;;13.47;8.33;;;;;;;;;;5087803;28;20269;-32
2024/01/22 00:29:06;;;;;;;15.47;8.27;;;;;;;;;;5083274;28;20281;-36
2024/01/22 00:31:41;;;;;;;16.83;9.33;;;;;;;;;;5089931;28;20209;-31
2024/01/22 00:34:31;;;;;;;13.53;9.30;;;;;;;;;;5083583;28;20766;-36
2024/01/22 00:37:04;;;;;;;12.57;8.97;;;;;;;;;;5085093;28;20213;-33
2024/01/22 00:39:56;;;;;;;12.43;9.17;;;;;;;;;;5081329;28;20345;-31
2024/01/22 00:42:35;;;;;;;9.77;7.80;;;;;;;;;;5095453;28;20205;-34
2024/01/22 00:45:08;;;;;;;11.90;8.07;;;;;;;;;;5095701;28;20219;-36
2024/01/22 00:52:52;;;;;;;16.53;10.07;;;;;;;;;;5045956;28;20221;-34
2024/01/22 00:55:27;;;;;;;12.03;7.93;;;;;;;;;;5043614;28;20206;-34
2024/01/22 00:58:03;;;;;;;13.53;8.50;;;;;;;;;;5047903;28;20198;-34
2024/01/22 01:00:42;;;;;;;13.70;8.53;;;;;;;;;;5054817;28;20321;-32
2024/01/22 01:03:16;;;;;;;12.60;8.37;;;;;;;;;;5051498;28;20304;-35
2024/01/22 01:05:48;;;;;;;13.77;8.57;;;;;;;;;;5050731;28;20198;-33
2024/01/22 01:08:27;;;;;;;13.77;9.00;;;;;;;;;;5040115;28;20606;-34
2024/01/22 01:11:02;;;;;;;15.40;8.67;;;;;;;;;;5047126;28;20226;-32
2024/01/22 01:13:35;;;;;;;13.60;8.80;;;;;;;;;;5054025;28;20304;-34
2024/01/22 01:16:09;;;;;;;14.27;9.53;;;;;;;;;;5054847;28;20202;-32
2024/01/22 01:18:45;;;;;;;17.23;9.60;;;;;;;;;;5050864;28;20199;-32
2024/01/22 01:21:17;;;;;;;14.10;8.77;;;;;;;;;;5044900;28;20646;-33
2024/01/22 01:24:01;;;;;;;12.90;8.13;;;;;;;;;;5048221;28;20206;-32
2024/01/22 01:26:35;;;;;;;16.20;8.60;;;;;;;;;;5043429;28;20217;-33
2024/01/22 01:29:11;;;;;;;16.57;10.00;;;;;;;;;;5053606;28;20228;-34
2024/01/22 01:31:42;;;;;;;10.97;8.10;;;;;;;;;;5053134;28;20262;-32
2024/01/22 01:34:16;;;;;;;14.93;9.80;;;;;;;;;;5052023;28;20212;-31
2024/01/22 01:36:56;;;;;;;14.17;9.40;;;;;;;;;;5053867;28;20201;-35
2024/01/22 01:39:34;;;;;;;15.63;9.50;;;;;;;;;;5052220;28;20232;-34
2024/01/22 01:42:03;;;;;;;14.00;8.83;;;;;;;;;;5053959;28;20208;-33
2024/01/22 01:44:48;;;;;;;14.43;7.97;;;;;;;;;;5053945;28;20237;-35
2024/01/22 01:49:55;;;;;;;9.30;6.20;;;;;;;;;;5060599;28;20220;-37
2024/01/22 01:52:28;;;;;;;11.67;7.47;;;;;;;;;;5084863;28;20232;-35
2024/01/22 01:55:05;;;;;;;15.27;9.77;;;;;;;;;;5073921;28;20204;-34
2024/01/22 01:57:41;;;;;;;14.83;8.10;;;;;;;;;;5084490;28;20292;-32
2024/01/22 02:00:16;;;;;;;14.17;9.10;;;;;;;;;;5087864;28;20241;-35
2024/01/22 02:02:46;;;;;;;13.27;7.87;;;;;;;;;;5082945;28;20208;-32
2024/01/22 02:05:19;;;;;;;13.13;8.07;;;;;;;;;;5089742;28;20250;-30
2024/01/22 02:07:54;;;;;;;12.93;8.93;;;;;;;;;;5073940;28;20197;-34
2024/01/22 02:10:35;;;;;;;15.70;9.37;;;;;;;;;;5085583;28;20250;-36
2024/01/22 02:13:11;;;;;;;15.33;9.57;;;;;;;;;;5086999;28;20258;-37
2024/01/22 02:15:56;;;;;;;14.90;8.47;;;;;;;;;;5087770;28;20204;-32
2024/01/22 02:20:56;;;;;;;12.63;8.20;;;;;;;;;;5031669;28;20242;-36
2024/01/22 02:23:38;;;;;;;16.70;9.00;;;;;;;;;;5030895;28;20217;-33
2024/01/22 02:26:08;;;;;;;16.90;9.47;;;;;;;;;;5027602;28;20257;-34
2024/01/22 02:28:51;;;;;;;14.63;7.70;;;;;;;;;;5032294;28;20226;-31
2024/01/22 02:31:26;;;;;;;10.30;7.23;;;;;;;;;;5025193;28;20226;-36
2024/01/22 02:34:00;;;;;;;17.00;8.77;;;;;;;;;;5026055;28;20229;-34
2024/01/22 02:36:31;;;;;;;13.33;8.10;;;;;;;;;;5032706;28;20297;-36
2024/01/22 02:39:04;;;;;;;14.17;8.40;;;;;;;;;;5028179;28;20204;-38
2024/01/22 02:41:34;;;;;;;14.43;8.40;;;;;;;;;;5031509;28;20210;-35
2024/01/22 02:44:06;;;;;;;10.33;3.37;;;;;;;;;;5032916;28;20217;-36
2024/01/22 02:46:38;;;;;;;16.00;8.43;;;;;;;;;;5032707;28;20234;-32
2024/01/22 02:49:11;;;;;;;13.00;8.00;;;;;;;;;;5029688;28;20274;-30
2024/01/22 02:51:41;;;;;;;10.50;8.80;;;;;;;;;;5030352;28;20221;-32
2024/01/22 02:54:16;;;;;;;14.30;8.90;;;;;;;;;;5025944;28;20229;-33
2024/01/22 02:56:45;;;;;;;15.63;8.70;;;;;;;;;;5031903;28;20210;-33
2024/01/22 02:59:17;;;;;;;13.10;8.77;;;;;;;;;;5032179;28;20270;-36
2024/01/22 03:01:51;;;;;;;13.20;8.10;;;;;;;;;;5032746;28;20233;-34
2024/01/22 03:04:43;;;;;;;15.60;8.50;;;;;;;;;;5030238;28;20208;-32
2024/01/22 03:07:15;;;;;;;12.30;8.13;;;;;;;;;;5031218;28;20636;-35
2024/01/22 03:09:51;;;;;;;13.30;8.47;;;;;;;;;;5029436;28;20592;-36
2024/01/22 03:12:23;;;;;;;14.00;8.57;;;;;;;;;;5033082;28;20264;-35
2024/01/22 03:14:58;;;;;;;13.50;7.23;;;;;;;;;;5015214;28;20206;-34
2024/01/22 03:17:35;;;;;;;9.67;6.47;;;;;;;;;;5029950;28;20275;-32
2024/01/22 03:20:07;;;;;;;14.57;9.20;;;;;;;;;;5018051;28;20237;-30
2024/01/22 03:27:54;;;;;;;15.70;10.10;;;;;;;;;;5049454;28;20224;-26
2024/01/22 03:30:29;;;;;;;13.03;8.70;;;;;;;;;;5055315;28;20760;-26
2024/01/22 03:33:10;;;;;;;14.63;8.93;;;;;;;;;;5055463;28;20299;-26
2024/01/22 03:35:46;;;;;;;12.30;7.67;;;;;;;;;;5066049;28;20201;-29
2024/01/22 03:48:23;;;;;;;13.70;8.73;;;;;;;;;;5096625;28;20265;-36
2024/01/22 03:50:56;;;;;;;13.23;8.17;;;;;;;;;;5104222;28;20324;-33
2024/01/22 03:53:33;;;;;;;13.30;8.13;;;;;;;;;;5108966;28;20211;-33
2024/01/22 03:56:06;;;;;;;11.83;8.57;;;;;;;;;;5110377;28;20212;-30
2024/01/22 03:58:37;;;;;;;15.23;7.80;;;;;;;;;;5111318;28;20204;-35
2024/01/22 04:01:09;;;;;;;11.67;7.90;;;;;;;;;;5107758;28;20223;-34
2024/01/22 04:03:41;;;;;;;11.20;6.43;;;;;;;;;;5099372;28;20211;-34
2024/01/22 04:06:25;;;;;;;12.47;7.30;;;;;;;;;;5111726;28;20208;-35
2024/01/22 04:08:59;;;;;;;10.40;7.30;;;;;;;;;;5098595;28;20566;-32
2024/01/22 04:11:29;;;;;;;10.83;8.47;;;;;;;;;;5112301;28;20208;-33
2024/01/22 04:14:03;;;;;;;13.70;8.57;;;;;;;;;;5103678;28;20203;-37
2024/01/22 04:16:40;;;;;;;18.70;7.57;;;;;;;;;;5111290;28;20204;-36
2024/01/22 04:19:22;;;;;;;11.33;7.00;;;;;;;;;;5101302;28;20204;-30
2024/01/22 04:21:54;;;;;;;14.50;8.53;;;;;;;;;;5111619;28;20543;-33
2024/01/22 04:24:28;;;;;;;15.43;8.73;;;;;;;;;;5107336;28;20285;-32
2024/01/22 04:27:04;;;;;;;11.10;7.10;;;;;;;;;;5109909;28;20204;-33
2024/01/22 04:29:45;;;;;;;13.50;7.87;;;;;;;;;;5102885;28;20299;-33
2024/01/22 04:32:15;;;;;;;13.30;7.73;;;;;;;;;;5102580;28;20220;-33
2024/01/22 04:34:47;;;;;;;15.97;8.27;;;;;;;;;;5106463;28;20766;-34
2024/01/22 04:37:32;;;;;;;16.40;8.83;;;;;;;;;;5111534;28;20622;-38
2024/01/22 04:40:11;;;;;;;12.50;7.13;;;;;;;;;;5108444;28;20224;-37
2024/01/22 04:46:02;;;;;;;10.33;7.20;;;;;;;;;;5109609;28;20240;-36
2024/01/22 04:48:32;;;;;;;12.17;7.53;;;;;;;;;;5103636;28;20205;-36
2024/01/22 04:51:09;;;;;;;9.07;6.93;;;;;;;;;;5110930;28;20298;-39
2024/01/22 04:53:39;;;;;;;12.37;7.63;;;;;;;;;;5096158;28;20211;-36
2024/01/22 04:56:11;;;;;;;11.60;7.87;;;;;;;;;;5096489;28;20567;-32
2024/01/22 04:58:41;;;;;;;12.00;7.00;;;;;;;;;;5104272;28;20285;-34
2024/01/22 05:03:44;;;;;;;10.03;6.50;;;;;;;;;;5037835;28;20222;-33
2024/01/22 05:06:17;;;;;;;11.47;6.83;;;;;;;;;;5035208;28;20214;-30
2024/01/22 05:08:46;;;;;;;11.33;6.93;;;;;;;;;;5043439;28;20206;-36
2024/01/22 05:11:18;;;;;;;11.67;6.67;;;;;;;;;;5019819;28;20235;-32
2024/01/22 05:13:50;;;;;;;10.03;7.50;;;;;;;;;;5003107;28;20212;-36
2024/01/22 05:16:18;;;;;;;11.23;6.30;;;;;;;;;;5009792;28;20214;-33
2024/01/22 05:18:51;;;;;;;9.87;6.83;;;;;;;;;;5019289;28;20306;-33
2024/01/22 05:21:21;;;;;;;11.77;7.03;;;;;;;;;;5024118;28;20700;-38
2024/01/22 05:23:51;;;;;;;10.77;6.70;;;;;;;;;;5009079;28;20641;-35
2024/01/22 05:26:23;;;;;;;11.10;7.57;;;;;;;;;;5014676;28;20216;-35
2024/01/22 05:29:02;;;;;;;12.00;7.77;;;;;;;;;;5012996;28;20231;-32
2024/01/22 05:31:31;;;;;;;9.87;6.80;;;;;;;;;;5022061;28;20294;-34
2024/01/22 05:34:04;;;;;;;7.17;4.43;;;;;;;;;;5016164;28;20217;-34
2024/01/22 05:36:38;;;;;;;11.33;6.93;;;;;;;;;;5022365;28;20211;-33
2024/01/22 05:39:08;;;;;;;13.23;7.30;;;;;;;;;;5012994;28;20540;-32
2024/01/22 05:41:37;;;;;;;10.20;6.20;;;;;;;;;;5009849;28;20216;-33
2024/01/22 05:44:04;;;;;;;10.73;6.90;;;;;;;;;;5021969;28;20222;-32
2024/01/22 05:46:32;;;;;;;8.87;5.97;;;;;;;;;;5013422;28;20211;-32
2024/01/22 05:49:02;;;;;;;12.10;7.17;;;;;;;;;;5009350;28;20221;-31
2024/01/22 05:51:30;;;;;;;9.90;6.17;;;;;;;;;;5032473;28;20301;-33
2024/01/22 05:54:01;;;;;;;4.50;2.63;;;;;;;;;;5019442;28;20207;-32
2024/01/22 05:56:29;;;;;;;10.73;7.10;;;;;;;;;;5025815;28;20211;-32
2024/01/22 05:59:00;;;;;;;10.23;7.07;;;;;;;;;;5020166;28;20233;-34
2024/01/22 06:01:30;;;;;;;10.27;6.57;;;;;;;;;;5013546;28;20296;-32
2024/01/22 06:04:00;;;;;;;7.67;6.13;;;;;;;;;;5020660;28;20230;-32
2024/01/22 06:06:28;;;;;;;12.50;7.50;;;;;;;;;;5018079;28;20210;-31
2024/01/22 06:09:03;;;;;;;9.80;6.40;;;;;;;;;;5015703;28;20234;-32
2024/01/22 06:11:31;;;;;;;12.07;7.13;;;;;;;;;;5018005;28;20293;-31
2024/01/22 06:13:59;;;;;;;9.17;6.40;;;;;;;;;;5011985;28;20210;-33
2024/01/22 06:16:27;;;;;;;9.73;6.27;;;;;;;;;;5017383;28;20210;-33
2024/01/22 06:18:54;;;;;;;14.03;7.07;;;;;;;;;;5008299;28;20214;-34
2024/01/22 06:21:22;;;;;;;11.50;6.37;;;;;;;;;;5015311;28;20318;-34
2024/01/22 06:23:49;;;;;;;10.03;6.40;;;;;;;;;;5009779;28;20238;-35
2024/01/22 06:26:22;;;;;;;11.53;6.20;;;;;;;;;;5015297;28;20207;-32
2024/01/22 06:28:52;;;;;;;9.40;6.10;;;;;;;;;;5013255;28;20203;-32
2024/01/22 06:31:20;;;;;;;12.40;6.80;;;;;;;;;;5016691;28;20257;-32
2024/01/22 06:33:47;;;;;;;9.70;6.50;;;;;;;;;;5014523;28;20717;-30
2024/01/22 06:36:15;;;;;;;8.40;5.97;;;;;;;;;;5016491;28;20217;-32
2024/01/22 06:41:18;;;;;;;10.80;6.90;;;;;;;;;;5047182;28;20295;-35
2024/01/22 06:43:50;;;;;;;11.30;6.87;;;;;;;;;;5045017;28;20226;-34
2024/01/22 06:46:17;;;;;;;9.60;6.77;;;;;;;;;;5050208;28;20223;-31
2024/01/22 06:51:13;;;;;;;8.63;5.70;;;;;;;;;;5061477;28;20237;-35
2024/01/22 06:53:40;;;;;;;8.00;5.57;;;;;;;;;;5061686;28;20206;-31
2024/01/22 06:56:09;;;;;;;15.07;7.53;;;;;;;;;;5057502;28;20612;-31
2024/01/22 06:58:36;;;;;;;9.83;6.93;;;;;;;;;;5054084;28;20275;-31
2024/01/22 07:01:09;;;;;;;9.20;6.37;;;;;;;;;;5056842;28;20283;-31
2024/01/22 07:03:40;;;;;;;13.00;7.23;;;;;;;;;;5055422;28;20206;-30
2024/01/22 07:06:09;;;;;;;8.80;5.80;;;;;;;;;;5056869;28;20222;-36
2024/01/22 07:08:36;;;;;;;10.97;6.23;;;;;;;;;;5055331;28;20253;-33
2024/01/22 07:11:03;;;;;;;12.13;6.90;;;;;;;;;;5053373;28;20225;-34
2024/01/22 07:13:32;;;;;;;0.40;0.37;;;;;;;;;;5063267;28;20296;-32
2024/01/22 07:16:00;;;;;;;16.17;8.27;;;;;;;;;;5055478;28;20663;-34
2024/01/22 07:18:29;;;;;;;10.13;6.80;;;;;;;;;;5061576;28;20514;-37
2024/01/22 07:20:56;;;;;;;8.83;6.50;;;;;;;;;;5056701;28;20704;-33
2024/01/22 07:23:24;;;;;;;9.57;6.23;;;;;;;;;;5059915;28;20522;-32
2024/01/22 07:25:54;;;;;;;20.70;10.40;;;;;;;;;;5056393;28;20205;-32
2024/01/22 07:28:23;;;;;;;14.93;8.33;;;;;;;;;;5063044;28;20212;-34
2024/01/22 07:30:51;;;;;;;16.37;9.43;;;;;;;;;;5061087;28;20621;-34
2024/01/22 07:33:18;;;;;;;11.10;7.77;;;;;;;;;;5051282;28;20958;-39
2024/01/22 07:35:49;;;;;;;11.23;6.27;;;;;;;;;;5057972;28;20267;-36
2024/01/22 07:38:16;;;;;;;11.47;6.77;;;;;;;;;;5047754;28;20225;-35
2024/01/22 07:40:47;;;;;;;14.13;7.97;;;;;;;;;;5057947;28;20308;-33
2024/01/22 07:43:14;;;;;;;28.33;11.80;;;;;;;;;;5056125;28;20209;-35
2024/01/22 07:45:41;;;;;;;12.33;7.53;;;;;;;;;;5056370;28;20284;-34
2024/01/22 07:48:09;;;;;;;14.20;7.37;;;;;;;;;;5050225;28;20304;-32
2024/01/22 07:50:36;;;;;;;13.07;8.10;;;;;;;;;;5075630;28;20690;-32
2024/01/22 07:53:06;;;;;;;11.23;7.70;;;;;;;;;;5087717;28;20209;-34
2024/01/22 07:55:33;;;;;;;12.73;7.40;;;;;;;;;;5071738;28;20201;-33
2024/01/22 07:58:01;;;;;;;11.47;7.57;;;;;;;;;;5083029;28;20208;-32
2024/01/22 08:00:29;;;;;;;9.50;6.03;;;;;;;;;;5083263;28;20293;-34
2024/01/22 08:02:57;;;;;;;9.67;7.00;;;;;;;;;;5081004;28;20224;-33
2024/01/22 08:05:24;;;;;;;14.07;7.40;;;;;;;;;;5086762;28;20727;-34
2024/01/22 08:07:51;;;;;;;9.60;6.67;;;;;;;;;;5070536;28;20296;-32
2024/01/22 08:10:23;;;;;;;12.73;6.57;;;;;;;;;;5073029;28;20220;-34
2024/01/22 08:12:50;;;;;;;11.57;7.30;;;;;;;;;;5069117;28;20209;-33
2024/01/22 08:15:24;;;;;;;10.20;6.97;;;;;;;;;;5075139;28;20276;-32
2024/01/22 08:17:51;;;;;;;9.83;6.47;;;;;;;;;;5075476;28;20283;-33
2024/01/22 08:20:19;;;;;;;9.87;6.53;;;;;;;;;;5072628;28;20780;-36
2024/01/22 08:22:47;;;;;;;10.07;6.47;;;;;;;;;;5081426;28;20200;-34
2024/01/22 08:25:18;;;;;;;9.10;6.50;;;;;;;;;;5077196;28;20214;-31
2024/01/22 08:27:47;;;;;;;9.33;5.47;;;;;;;;;;5080417;28;20213;-31
2024/01/22 08:30:14;;;;;;;13.30;6.87;;;;;;;;;;5069505;28;20316;-38
2024/01/22 08:32:42;;;;;;;8.50;6.27;;;;;;;;;;5071766;28;20284;-38
2024/01/22 08:35:09;;;;;;;11.50;7.17;;;;;;;;;;5080000;28;20213;-33
2024/01/22 08:37:39;;;;;;;14.93;8.53;;;;;;;;;;5083587;28;20267;-34
2024/01/22 08:40:07;;;;;;;10.23;7.23;;;;;;;;;;5080220;28;20235;-34
2024/01/22 08:42:40;;;;;;;12.93;7.90;;;;;;;;;;5072116;28;20220;-37
2024/01/22 08:45:10;;;;;;;11.77;6.27;;;;;;;;;;5080408;28;20236;-36
2024/01/22 08:47:37;;;;;;;10.80;7.37;;;;;;;;;;5078204;28;20201;-33
2024/01/22 08:50:04;;;;;;;9.40;6.33;;;;;;;;;;5087857;28;20318;-35
2024/01/22 08:52:32;;;;;;;11.37;7.07;;;;;;;;;;5077320;28;20194;-33
2024/01/22 08:55:00;;;;;;;14.17;7.93;;;;;;;;;;5072953;28;20221;-36
2024/01/22 08:57:27;;;;;;;10.90;6.60;;;;;;;;;;5077137;28;20213;-33
2024/01/22 08:59:54;;;;;;;12.70;8.00;;;;;;;;;;5072428;28;20757;-35
2024/01/22 09:02:23;;;;;;;11.93;7.37;;;;;;;;;;5079998;28;20228;-35
2024/01/22 09:04:50;;;;;;;9.90;6.83;;;;;;;;;;5080891;28;20270;-33
2024/01/22 09:07:17;;;;;;;9.23;6.40;;;;;;;;;;5077179;28;20197;-35
2024/01/22 09:09:44;;;;;;;10.87;7.33;;;;;;;;;;5077426;28;20617;-36
2024/01/22 09:12:12;;;;;;;8.73;6.57;;;;;;;;;;5080760;28;20690;-36
2024/01/22 09:14:39;;;;;;;9.37;6.73;;;;;;;;;;5083943;28;20202;-31
2024/01/22 09:17:06;;;;;;;10.80;6.20;;;;;;;;;;5084264;28;20225;-36
2024/01/22 09:19:34;;;;;;;12.03;6.50;;;;;;;;;;5082465;28;20723;-34
2024/01/22 09:22:01;;;;;;;15.53;7.83;;;;;;;;;;5076811;28;20666;-36
2024/01/22 09:24:29;;;;;;;8.00;4.90;;;;;;;;;;5073529;28;20212;-36
2024/01/22 09:26:56;;;;;;;2.47;2.00;;;;;;;;;;5082646;28;20208;-35
2024/01/22 09:29:23;;;;;;;5.43;2.93;;;;;;;;;;5086650;28;20690;-35
2024/01/22 09:31:51;;;;;;;3.97;2.63;;;;;;;;;;5085514;28;20225;-33
2024/01/22 09:34:19;;;;;;;4.27;3.30;;;;;;;;;;5080374;28;20209;-34
2024/01/22 09:36:47;;;;;;;5.20;3.13;;;;;;;;;;5073584;28;20255;-38
2024/01/22 09:39:14;;;;;;;2.77;2.17;;;;;;;;;;5076299;28;20224;-35
2024/01/22 09:41:42;;;;;;;1.90;1.73;;;;;;;;;;5079844;28;20231;-35
2024/01/22 09:44:19;;;;;;;3.50;1.67;;;;;;;;;;5075494;28;20296;-35
2024/01/22 09:46:47;;;;;;;2.33;1.67;;;;;;;;;;5080862;28;20277;-34
2024/01/22 09:49:15;;;;;;;2.37;1.17;;;;;;;;;;5087272;28;20213;-37
2024/01/22 09:51:44;;;;;;;2.13;1.23;;;;;;;;;;5080769;28;20230;-36
2024/01/22 09:54:17;;;;;;;2.27;1.17;;;;;;;;;;5075696;28;20212;-33
2024/01/22 09:56:54;;;;;;;1.17;1.07;;;;;;;;;;5076499;28;20228;-35
2024/01/22 09:59:23;;;;;;;1.17;1.00;;;;;;;;;;5073114;28;20233;-35
2024/01/22 10:01:51;;;;;;;1.50;1.10;;;;;;;;;;5075320;28;20688;-37
2024/01/22 10:04:18;;;;;;;1.07;1.00;;;;;;;;;;5079665;28;20209;-33
2024/01/22 10:06:46;;;;;;;2.60;1.13;;;;;;;;;;5078081;28;20203;-34
2024/01/22 10:09:17;;;;;;;3.40;1.10;;;;;;;;;;5082260;28;20197;-34
2024/01/22 10:11:44;;;;;;;2.63;1.03;;;;;;;;;;5076653;28;20218;-38
2024/01/22 10:14:12;;;;;;;1.10;0.97;;;;;;;;;;5083672;28;20197;-33
2024/01/22 10:16:39;;;;;;;0.70;0.70;;;;;;;;;;5093666;28;20200;-41
2024/01/22 10:19:08;;;;;;;1.00;1.00;;;;;;;;;;5075840;28;20224;-36
2024/01/22 10:21:36;;;;;;;1.47;1.10;;;;;;;;;;5074683;28;20251;-33
2024/01/22 10:24:06;;;;;;;1.10;1.00;;;;;;;;;;5076537;28;20212;-30
2024/01/22 10:26:39;;;;;;;0.80;0.80;;;;;;;;;;5080555;28;20204;-35
2024/01/22 10:29:28;;;;;;;1.00;0.90;;;;;;;;;;5076921;28;20284;-35
2024/01/22 10:32:00;;;;;;;2.90;0.90;;;;;;;;;;5081305;28;20221;-37
2024/01/22 10:34:33;;;;;;;2.00;1.20;;;;;;;;;;5079201;28;20250;-36
2024/01/22 10:37:09;;;;;;;1.23;1.10;;;;;;;;;;5083050;28;20228;-32
2024/01/22 10:39:38;;;;;;;1.33;1.00;;;;;;;;;;5085995;28;20220;-34
2024/01/22 10:42:11;;;;;;;2.50;0.93;;;;;;;;;;5079968;28;20201;-35
2024/01/22 10:44:44;;;;;;;2.50;1.00;;;;;;;;;;5074549;28;20211;-37
2024/01/22 10:47:19;;;;;;;0.80;0.80;;;;;;;;;;5078291;28;20292;-37
2024/01/22 10:49:52;;;;;;;1.27;0.73;;;;;;;;;;5074186;28;20315;-37
2024/01/22 10:52:20;;;;;;;0.80;0.80;;;;;;;;;;5071829;28;20327;-37
2024/01/22 10:54:51;;;;;;;1.80;0.90;;;;;;;;;;5076038;28;20216;-33
2024/01/22 10:57:26;;;;;;;2.00;0.83;;;;;;;;;;5083735;28;20208;-34
2024/01/22 10:59:54;;;;;;;0.80;0.80;;;;;;;;;;5077306;28;20224;-35
2024/01/22 11:02:23;;;;;;;0.70;0.70;;;;;;;;;;5076144;28;20296;-35
2024/01/22 11:04:54;;;;;;;0.60;0.60;;;;;;;;;;5084492;28;20221;-36
2024/01/22 11:07:24;;;;;;;0.60;0.60;;;;;;;;;;5075677;28;20197;-35
2024/01/22 11:09:52;;;;;;;0.50;0.50;;;;;;;;;;5077844;28;20232;-34
2024/01/22 11:12:21;;;;;;;0.80;0.67;;;;;;;;;;5082958;28;20398;-34
2024/01/22 11:14:49;;;;;;;0.60;0.60;;;;;;;;;;5081502;28;20289;-31
2024/01/22 11:17:18;;;;;;;0.80;0.80;;;;;;;;;;5082151;28;20296;-36
2024/01/22 11:19:50;;;;;;;1.07;0.77;;;;;;;;;;5076607;28;20220;-39
2024/01/22 11:22:21;;;;;;;0.70;0.70;;;;;;;;;;5082306;28;20220;-36
2024/01/22 11:25:00;;;;;;;1.53;0.77;;;;;;;;;;5077833;28;20232;-33
2024/01/22 11:27:37;;;;;;;1.67;0.80;;;;;;;;;;5074818;28;20208;-32
2024/01/22 11:30:27;;;;;;;0.73;0.73;;;;;;;;;;5092503;28;20216;-36
2024/01/22 11:32:55;;;;;;;0.70;0.70;;;;;;;;;;5073602;28;20300;-34
2024/01/22 11:35:33;;;;;;;1.30;1.00;;;;;;;;;;5081902;28;20364;-30
2024/01/22 11:38:01;;;;;;;1.30;0.73;;;;;;;;;;5072170;28;20292;-31
2024/01/22 11:40:42;;;;;;;0.50;0.50;;;;;;;;;;5074786;28;20254;-35
2024/01/22 11:43:15;;;;;;;0.60;0.60;;;;;;;;;;5073573;28;20197;-32
2024/01/22 11:45:42;;;;;;;1.23;0.70;;;;;;;;;;5078686;28;20201;-35
2024/01/22 11:48:16;;;;;;;0.70;0.70;;;;;;;;;;5073899;28;20580;-30
2024/01/22 11:50:44;;;;;;;0.77;0.77;;;;;;;;;;5085262;28;20240;-32
2024/01/22 11:53:12;;;;;;;0.40;0.40;;;;;;;;;;5082959;28;20224;-36
2024/01/22 11:55:40;;;;;;;0.97;0.77;;;;;;;;;;5074925;28;20204;-33
2024/01/22 11:58:15;;;;;;;0.77;0.50;;;;;;;;;;5083547;28;20202;-31
2024/01/22 12:00:42;;;;;;;0.70;0.60;;;;;;;;;;5083719;28;20224;-34
2024/01/22 12:03:12;;;;;;;0.73;0.70;;;;;;;;;;5074482;28;20225;-33
2024/01/22 12:05:43;;;;;;;0.40;0.40;;;;;;;;;;5076968;28;20208;-36
2024/01/22 12:08:13;;;;;;;1.13;0.70;;;;;;;;;;5080218;28;20648;-35
2024/01/22 12:10:43;;;;;;;0.80;0.60;;;;;;;;;;5077587;28;20254;-41
2024/01/22 12:13:16;;;;;;;0.93;0.70;;;;;;;;;;5076474;28;20229;-38
2024/01/22 12:15:43;;;;;;;0.93;0.73;;;;;;;;;;5072651;28;20207;-33
2024/01/22 12:18:10;;;;;;;0.70;0.60;;;;;;;;;;5081437;28;20208;-32
2024/01/22 12:20:41;;;;;;;1.20;0.70;;;;;;;;;;5074739;28;20234;-35
2024/01/22 12:23:10;;;;;;;0.90;0.70;;;;;;;;;;5071660;28;20205;-34
2024/01/22 12:25:37;;;;;;;1.97;0.70;;;;;;;;;;5082043;28;20231;-32
2024/01/22 12:28:07;;;;;;;0.80;0.80;;;;;;;;;;5079783;28;20215;-37
2024/01/22 12:30:36;;;;;;;0.60;0.60;;;;;;;;;;5079546;28;20684;-35
2024/01/22 12:33:04;;;;;;;0.60;0.60;;;;;;;;;;5085249;28;20251;-35
2024/01/22 12:35:32;;;;;;;0.63;0.63;;;;;;;;;;5080440;28;20491;-36
2024/01/22 12:37:59;;;;;;;2.83;0.70;;;;;;;;;;5091112;28;20205;-34
2024/01/22 12:40:27;;;;;;;0.60;0.60;;;;;;;;;;5075314;28;20228;-36
2024/01/22 12:43:00;;;;;;;0.70;0.63;;;;;;;;;;5084572;28;20227;-34
2024/01/22 12:45:28;;;;;;;2.10;1.20;;;;;;;;;;5094383;28;20205;-36
2024/01/22 12:47:57;;;;;;;0.60;0.60;;;;;;;;;;5088152;28;20560;-36
2024/01/22 12:50:27;;;;;;;0.53;0.40;;;;;;;;;;5083823;28;20314;-31
2024/01/22 12:52:55;;;;;;;2.03;0.70;;;;;;;;;;5075692;28;20213;-33
2024/01/22 12:55:25;;;;;;;0.60;0.47;;;;;;;;;;5076272;28;20204;-33
2024/01/22 12:57:53;;;;;;;0.60;0.60;;;;;;;;;;5084054;28;20209;-34
2024/01/22 13:00:21;;;;;;;1.03;0.90;;;;;;;;;;5092598;28;20232;-32
2024/01/22 13:02:51;;;;;;;1.13;0.43;;;;;;;;;;5080623;28;20920;-35
2024/01/22 13:05:27;;;;;;;0.60;0.60;;;;;;;;;;5078214;28;20656;-37
2024/01/22 13:07:55;;;;;;;0.60;0.60;;;;;;;;;;5075253;28;20294;-34
2024/01/22 13:10:22;;;;;;;0.83;0.57;;;;;;;;;;5074501;28;20225;-35
2024/01/22 13:12:52;;;;;;;0.87;0.60;;;;;;;;;;5088482;28;20244;-34
2024/01/22 13:15:22;;;;;;;0.97;0.60;;;;;;;;;;5095014;28;20247;-38
2024/01/22 13:17:52;;;;;;;1.70;0.90;;;;;;;;;;5075692;28;20205;-36
2024/01/22 13:20:20;;;;;;;0.90;0.90;;;;;;;;;;5089661;28;20235;-30
2024/01/22 13:22:50;;;;;;;2.43;0.60;;;;;;;;;;5082419;28;20201;-32
2024/01/22 13:25:23;;;;;;;1.60;0.67;;;;;;;;;;5086015;28;20204;-37
2024/01/22 13:27:57;;;;;;;1.47;1.37;;;;;;;;;;5088247;28;20206;-32
2024/01/22 13:30:28;;;;;;;0.70;0.70;;;;;;;;;;5103221;28;20231;-35
2024/01/22 13:32:57;;;;;;;0.83;0.60;;;;;;;;;;5086660;28;20223;-34
2024/01/22 13:35:24;;;;;;;0.60;0.60;;;;;;;;;;5094523;28;20300;-36
2024/01/22 13:37:56;;;;;;;0.93;0.93;;;;;;;;;;5083125;28;20210;-35
2024/01/22 13:40:23;;;;;;;0.70;0.70;;;;;;;;;;5075238;28;20233;-36
2024/01/22 13:42:51;;;;;;;1.23;0.67;;;;;;;;;;5075114;28;20205;-36
2024/01/22 13:45:18;;;;;;;2.90;0.87;;;;;;;;;;5078706;28;20217;-35
2024/01/22 13:47:50;;;;;;;1.20;1.10;;;;;;;;;;5075109;28;20213;-35
2024/01/22 13:50:18;;;;;;;0.93;0.93;;;;;;;;;;5091600;28;20260;-32
2024/01/22 13:52:45;;;;;;;0.60;0.60;;;;;;;;;;5077708;28;20231;-38
2024/01/22 13:55:15;;;;;;;0.67;0.67;;;;;;;;;;5080456;28;20212;-37
2024/01/22 13:57:43;;;;;;;0.67;0.63;;;;;;;;;;5077597;28;20213;-34
2024/01/22 14:05:17;;;;;;;0.90;0.90;;;;;;;;;;5103608;28;20229;-25
2024/01/22 14:07:44;;;;;;;1.40;1.30;;;;;;;;;;5095910;28;20210;-26
2024/01/22 14:10:19;;;;;;;1.17;0.90;;;;;;;;;;5101376;28;20220;-27
2024/01/22 14:12:51;;;;;;;0.70;0.70;;;;;;;;;;5114853;28;20239;-30
2024/01/22 14:15:19;;;;;;;0.83;0.83;;;;;;;;;;5114396;28;20233;-26
2024/01/22 14:17:47;;;;;;;1.43;1.33;;;;;;;;;;5110567;28;20208;-27
2024/01/22 14:20:15;;;;;;;1.30;1.20;;;;;;;;;;5111969;28;20223;-25
2024/01/22 14:22:42;;;;;;;0.80;0.80;;;;;;;;;;5109905;28;20197;-28
2024/01/22 14:25:10;;;;;;;0.77;0.77;;;;;;;;;;5097864;28;20208;-29
2024/01/22 14:27:40;;;;;;;0.73;0.70;;;;;;;;;;5112452;28;20290;-28
2024/01/22 14:30:08;;;;;;;0.60;0.60;;;;;;;;;;5113737;28;20227;-27
2024/01/22 14:32:36;;;;;;;1.10;0.90;;;;;;;;;;5108324;28;20310;-29
2024/01/22 14:35:07;;;;;;;0.97;0.83;;;;;;;;;;5109679;28;20200;-29
2024/01/22 14:37:34;;;;;;;1.70;0.60;;;;;;;;;;5112335;28;20253;-27
2024/01/22 14:40:01;;;;;;;0.97;0.80;;;;;;;;;;5106023;28;20228;-27
2024/01/22 14:42:29;;;;;;;0.83;0.73;;;;;;;;;;5104811;28;20642;-27
2024/01/22 14:44:59;;;;;;;1.03;0.70;;;;;;;;;;5114562;28;20211;-27
2024/01/22 14:47:27;;;;;;;0.83;0.60;;;;;;;;;;5109197;28;20287;-27
2024/01/22 14:49:54;;;;;;;1.33;0.63;;;;;;;;;;5109340;28;20283;-28
2024/01/22 14:52:25;;;;;;;0.90;0.90;;;;;;;;;;5111959;28;20284;-27
2024/01/22 14:54:56;;;;;;;1.37;0.60;;;;;;;;;;5108670;28;20287;-28
2024/01/22 14:57:23;;;;;;;0.97;0.60;;;;;;;;;;5112501;28;20212;-30
2024/01/22 14:59:54;;;;;;;0.77;0.53;;;;;;;;;;5105454;28;20224;-27
2024/01/22 15:02:24;;;;;;;1.30;0.70;;;;;;;;;;5113587;28;20215;-29
2024/01/22 15:04:52;;;;;;;2.97;0.60;;;;;;;;;;5102434;28;20215;-27
2024/01/22 15:07:23;;;;;;;0.90;0.70;;;;;;;;;;5109598;28;20211;-28
2024/01/22 15:09:51;;;;;;;0.90;0.77;;;;;;;;;;5101299;28;20232;-29
2024/01/22 15:12:19;;;;;;;1.07;0.50;;;;;;;;;;5112919;28;20259;-27
2024/01/22 15:14:47;;;;;;;1.47;0.60;;;;;;;;;;5105159;28;20204;-28
2024/01/22 15:17:20;;;;;;;1.63;0.60;;;;;;;;;;5104729;28;20200;-29
2024/01/22 15:19:49;;;;;;;0.60;0.60;;;;;;;;;;5109263;28;20254;-26
2024/01/22 15:22:16;;;;;;;0.90;0.70;;;;;;;;;;5113867;28;20196;-27
2024/01/22 15:24:45;;;;;;;0.87;0.50;;;;;;;;;;5097277;28;20204;-29
2024/01/22 15:27:12;;;;;;;4.43;3.00;;;;;;;;;;5100709;28;20200;-30
2024/01/22 15:29:39;;;;;;;16.43;6.70;;;;;;;;;;5111561;28;20232;-28
2024/01/22 15:32:07;;;;;;;38.17;14.70;;;;;;;;;;5106184;28;20295;-27
2024/01/22 15:34:37;;;;;;;77.80;26.70;;;;;;;;;;5106822;28;20235;-29
2024/01/22 15:37:07;;;;;;;1.60;0.87;;;;;;;;;;5111958;28;20240;-27
2024/01/22 15:39:35;;;;;;;0.80;0.80;;;;;;;;;;5100178;28;20231;-29